sensor_id;sensor_type;location;lat;lon;timestamp;P1;durP1;ratioP1;P2;durP2;ratioP2
10096;SDS011;5087;42.662;23.466;2023-04-03T00:00:57;0.60;;;0.60;;
10096;SDS011;5087;42.662;23.466;2023-04-03T00:03:24;0.73;;;0.73;;
10096;SDS011;5087;42.662;23.466;2023-04-03T00:05:52;0.80;;;0.80;;
10096;SDS011;5087;42.662;23.466;2023-04-03T00:08:20;0.90;;;0.90;;
10096;SDS011;5087;42.662;23.466;2023-04-03T00:10:48;1.00;;;1.00;;
10096;SDS011;5087;42.662;23.466;2023-04-03T00:13:15;1.10;;;1.10;;
10096;SDS011;5087;42.662;23.466;2023-04-03T00:15:44;1.20;;;1.20;;
10096;SDS011;5087;42.662;23.466;2023-04-03T00:18:11;1.10;;;1.10;;
10096;SDS011;5087;42.662;23.466;2023-04-03T00:20:39;0.90;;;0.90;;
10096;SDS011;5087;42.662;23.466;2023-04-03T00:23:10;0.80;;;0.80;;
10096;SDS011;5087;42.662;23.466;2023-04-03T00:25:37;1.00;;;1.00;;
10096;SDS011;5087;42.662;23.466;2023-04-03T00:28:10;1.10;;;1.10;;
10096;SDS011;5087;42.662;23.466;2023-04-03T00:30:37;1.73;;;1.63;;
10096;SDS011;5087;42.662;23.466;2023-04-03T00:33:06;1.00;;;1.00;;
10096;SDS011;5087;42.662;23.466;2023-04-03T00:35:33;0.90;;;0.90;;
10096;SDS011;5087;42.662;23.466;2023-04-03T00:38:01;0.80;;;0.80;;
10096;SDS011;5087;42.662;23.466;2023-04-03T00:40:32;0.60;;;0.60;;
10096;SDS011;5087;42.662;23.466;2023-04-03T00:43:00;0.80;;;0.80;;
10096;SDS011;5087;42.662;23.466;2023-04-03T00:45:33;0.60;;;0.60;;
10096;SDS011;5087;42.662;23.466;2023-04-03T00:48:02;0.60;;;0.60;;
10096;SDS011;5087;42.662;23.466;2023-04-03T00:50:34;0.60;;;0.60;;
10096;SDS011;5087;42.662;23.466;2023-04-03T00:53:04;0.70;;;0.70;;
10096;SDS011;5087;42.662;23.466;2023-04-03T00:55:32;0.70;;;0.70;;
10096;SDS011;5087;42.662;23.466;2023-04-03T00:58:02;0.60;;;0.60;;
10096;SDS011;5087;42.662;23.466;2023-04-03T01:00:30;0.70;;;0.70;;
10096;SDS011;5087;42.662;23.466;2023-04-03T01:02:58;0.50;;;0.50;;
10096;SDS011;5087;42.662;23.466;2023-04-03T01:05:26;0.43;;;0.43;;
10096;SDS011;5087;42.662;23.466;2023-04-03T01:07:55;0.40;;;0.40;;
10096;SDS011;5087;42.662;23.466;2023-04-03T01:10:24;0.30;;;0.30;;
10096;SDS011;5087;42.662;23.466;2023-04-03T01:12:52;0.40;;;0.40;;
10096;SDS011;5087;42.662;23.466;2023-04-03T01:15:20;0.57;;;0.57;;
10096;SDS011;5087;42.662;23.466;2023-04-03T01:17:49;0.50;;;0.50;;
10096;SDS011;5087;42.662;23.466;2023-04-03T01:23:43;0.40;;;0.40;;
10096;SDS011;5087;42.662;23.466;2023-04-03T01:26:25;0.50;;;0.50;;
10096;SDS011;5087;42.662;23.466;2023-04-03T01:28:53;0.40;;;0.40;;
10096;SDS011;5087;42.662;23.466;2023-04-03T01:31:22;0.50;;;0.50;;
10096;SDS011;5087;42.662;23.466;2023-04-03T01:33:56;0.30;;;0.30;;
10096;SDS011;5087;42.662;23.466;2023-04-03T01:36:24;0.40;;;0.40;;
10096;SDS011;5087;42.662;23.466;2023-04-03T01:38:54;0.37;;;0.37;;
10096;SDS011;5087;42.662;23.466;2023-04-03T01:41:22;0.40;;;0.40;;
10096;SDS011;5087;42.662;23.466;2023-04-03T01:43:53;2.00;;;1.90;;
10096;SDS011;5087;42.662;23.466;2023-04-03T01:46:21;0.30;;;0.30;;
10096;SDS011;5087;42.662;23.466;2023-04-03T01:48:49;0.20;;;0.20;;
10096;SDS011;5087;42.662;23.466;2023-04-03T01:51:18;0.30;;;0.30;;
10096;SDS011;5087;42.662;23.466;2023-04-03T01:53:46;0.20;;;0.20;;
10096;SDS011;5087;42.662;23.466;2023-04-03T01:56:13;0.30;;;0.30;;
10096;SDS011;5087;42.662;23.466;2023-04-03T01:58:44;0.20;;;0.20;;
10096;SDS011;5087;42.662;23.466;2023-04-03T02:01:11;0.20;;;0.20;;
10096;SDS011;5087;42.662;23.466;2023-04-03T02:03:38;0.20;;;0.20;;
10096;SDS011;5087;42.662;23.466;2023-04-03T02:06:06;0.10;;;0.10;;
10096;SDS011;5087;42.662;23.466;2023-04-03T02:08:35;0.00;;;0.00;;
10096;SDS011;5087;42.662;23.466;2023-04-03T02:11:05;0.10;;;0.10;;
10096;SDS011;5087;42.662;23.466;2023-04-03T02:13:32;0.10;;;0.10;;
10096;SDS011;5087;42.662;23.466;2023-04-03T02:16:05;0.00;;;0.00;;
10096;SDS011;5087;42.662;23.466;2023-04-03T02:18:34;0.00;;;0.00;;
10096;SDS011;5087;42.662;23.466;2023-04-03T02:21:01;0.10;;;0.10;;
10096;SDS011;5087;42.662;23.466;2023-04-03T02:23:28;0.27;;;0.27;;
10096;SDS011;5087;42.662;23.466;2023-04-03T02:26:03;0.40;;;0.40;;
10096;SDS011;5087;42.662;23.466;2023-04-03T02:28:32;0.20;;;0.20;;
10096;SDS011;5087;42.662;23.466;2023-04-03T02:30:59;0.20;;;0.20;;
10096;SDS011;5087;42.662;23.466;2023-04-03T02:33:26;0.80;;;0.80;;
10096;SDS011;5087;42.662;23.466;2023-04-03T02:35:54;0.20;;;0.20;;
10096;SDS011;5087;42.662;23.466;2023-04-03T02:38:22;0.30;;;0.30;;
10096;SDS011;5087;42.662;23.466;2023-04-03T02:40:50;0.20;;;0.20;;
10096;SDS011;5087;42.662;23.466;2023-04-03T02:43:19;0.10;;;0.10;;
10096;SDS011;5087;42.662;23.466;2023-04-03T02:45:46;0.20;;;0.20;;
10096;SDS011;5087;42.662;23.466;2023-04-03T02:48:13;0.20;;;0.20;;
10096;SDS011;5087;42.662;23.466;2023-04-03T02:50:42;0.20;;;0.20;;
10096;SDS011;5087;42.662;23.466;2023-04-03T02:53:09;0.20;;;0.20;;
10096;SDS011;5087;42.662;23.466;2023-04-03T02:55:36;0.63;;;0.63;;
10096;SDS011;5087;42.662;23.466;2023-04-03T02:58:04;0.10;;;0.10;;
10096;SDS011;5087;42.662;23.466;2023-04-03T03:00:33;3.73;;;1.80;;
10096;SDS011;5087;42.662;23.466;2023-04-03T03:03:00;0.20;;;0.20;;
10096;SDS011;5087;42.662;23.466;2023-04-03T03:05:28;0.20;;;0.20;;
10096;SDS011;5087;42.662;23.466;2023-04-03T03:07:56;0.20;;;0.20;;
10096;SDS011;5087;42.662;23.466;2023-04-03T03:10:24;0.10;;;0.10;;
10096;SDS011;5087;42.662;23.466;2023-04-03T03:12:51;0.63;;;0.63;;
10096;SDS011;5087;42.662;23.466;2023-04-03T03:15:19;0.20;;;0.20;;
10096;SDS011;5087;42.662;23.466;2023-04-03T03:17:48;0.20;;;0.20;;
10096;SDS011;5087;42.662;23.466;2023-04-03T03:20:16;0.30;;;0.30;;
10096;SDS011;5087;42.662;23.466;2023-04-03T03:22:44;0.20;;;0.20;;
10096;SDS011;5087;42.662;23.466;2023-04-03T03:25:11;0.10;;;0.10;;
10096;SDS011;5087;42.662;23.466;2023-04-03T03:27:39;0.10;;;0.10;;
10096;SDS011;5087;42.662;23.466;2023-04-03T03:30:10;0.10;;;0.10;;
10096;SDS011;5087;42.662;23.466;2023-04-03T03:32:37;0.20;;;0.20;;
10096;SDS011;5087;42.662;23.466;2023-04-03T03:35:06;0.13;;;0.13;;
10096;SDS011;5087;42.662;23.466;2023-04-03T03:37:34;0.10;;;0.10;;
10096;SDS011;5087;42.662;23.466;2023-04-03T03:40:01;0.10;;;0.10;;
10096;SDS011;5087;42.662;23.466;2023-04-03T03:42:30;0.10;;;0.10;;
10096;SDS011;5087;42.662;23.466;2023-04-03T03:44:57;0.10;;;0.10;;
10096;SDS011;5087;42.662;23.466;2023-04-03T03:47:24;0.10;;;0.10;;
10096;SDS011;5087;42.662;23.466;2023-04-03T03:49:53;0.10;;;0.10;;
10096;SDS011;5087;42.662;23.466;2023-04-03T03:52:22;0.00;;;0.00;;
10096;SDS011;5087;42.662;23.466;2023-04-03T03:54:49;0.10;;;0.10;;
10096;SDS011;5087;42.662;23.466;2023-04-03T03:57:17;0.00;;;0.00;;
10096;SDS011;5087;42.662;23.466;2023-04-03T03:59:45;0.10;;;0.10;;
10096;SDS011;5087;42.662;23.466;2023-04-03T04:02:16;0.10;;;0.10;;
10096;SDS011;5087;42.662;23.466;2023-04-03T04:04:43;0.30;;;0.30;;
10096;SDS011;5087;42.662;23.466;2023-04-03T04:07:11;2.43;;;2.33;;
10096;SDS011;5087;42.662;23.466;2023-04-03T04:09:43;2.30;;;2.17;;
10096;SDS011;5087;42.662;23.466;2023-04-03T04:12:13;0.10;;;0.10;;
10096;SDS011;5087;42.662;23.466;2023-04-03T04:14:44;0.10;;;0.10;;
10096;SDS011;5087;42.662;23.466;2023-04-03T04:17:12;0.43;;;0.43;;
10096;SDS011;5087;42.662;23.466;2023-04-03T04:19:43;0.10;;;0.10;;
10096;SDS011;5087;42.662;23.466;2023-04-03T04:22:19;0.00;;;0.00;;
10096;SDS011;5087;42.662;23.466;2023-04-03T04:24:49;0.10;;;0.10;;
10096;SDS011;5087;42.662;23.466;2023-04-03T04:27:16;1.73;;;1.63;;
10096;SDS011;5087;42.662;23.466;2023-04-03T04:29:44;0.10;;;0.10;;
10096;SDS011;5087;42.662;23.466;2023-04-03T04:32:12;0.10;;;0.10;;
10096;SDS011;5087;42.662;23.466;2023-04-03T04:34:39;0.00;;;0.00;;
10096;SDS011;5087;42.662;23.466;2023-04-03T04:37:09;0.00;;;0.00;;
10096;SDS011;5087;42.662;23.466;2023-04-03T04:39:40;0.00;;;0.00;;
10096;SDS011;5087;42.662;23.466;2023-04-03T04:42:26;0.00;;;0.00;;
10096;SDS011;5087;42.662;23.466;2023-04-03T04:44:58;0.20;;;0.20;;
10096;SDS011;5087;42.662;23.466;2023-04-03T04:47:29;0.00;;;0.00;;
10096;SDS011;5087;42.662;23.466;2023-04-03T04:49:56;0.10;;;0.10;;
10096;SDS011;5087;42.662;23.466;2023-04-03T04:52:25;0.10;;;0.10;;
10096;SDS011;5087;42.662;23.466;2023-04-03T04:54:53;0.00;;;0.00;;
10096;SDS011;5087;42.662;23.466;2023-04-03T04:57:25;0.00;;;0.00;;
10096;SDS011;5087;42.662;23.466;2023-04-03T04:59:53;0.10;;;0.10;;
10096;SDS011;5087;42.662;23.466;2023-04-03T05:02:21;0.10;;;0.10;;
10096;SDS011;5087;42.662;23.466;2023-04-03T05:04:48;0.10;;;0.10;;
10096;SDS011;5087;42.662;23.466;2023-04-03T05:07:25;0.00;;;0.00;;
10096;SDS011;5087;42.662;23.466;2023-04-03T05:09:54;0.00;;;0.00;;
10096;SDS011;5087;42.662;23.466;2023-04-03T05:12:25;2.13;;;1.63;;
10096;SDS011;5087;42.662;23.466;2023-04-03T05:14:57;0.00;;;0.00;;
10096;SDS011;5087;42.662;23.466;2023-04-03T05:17:26;0.10;;;0.10;;
10096;SDS011;5087;42.662;23.466;2023-04-03T05:19:55;0.43;;;0.43;;
10096;SDS011;5087;42.662;23.466;2023-04-03T05:22:30;0.03;;;0.03;;
10096;SDS011;5087;42.662;23.466;2023-04-03T05:25:06;0.10;;;0.10;;
10096;SDS011;5087;42.662;23.466;2023-04-03T05:27:47;0.10;;;0.10;;
10096;SDS011;5087;42.662;23.466;2023-04-03T05:30:23;0.83;;;0.33;;
10096;SDS011;5087;42.662;23.466;2023-04-03T05:32:52;0.30;;;0.30;;
10096;SDS011;5087;42.662;23.466;2023-04-03T05:35:32;0.20;;;0.20;;
10096;SDS011;5087;42.662;23.466;2023-04-03T05:38:14;0.30;;;0.30;;
10096;SDS011;5087;42.662;23.466;2023-04-03T05:40:46;0.47;;;0.47;;
10096;SDS011;5087;42.662;23.466;2023-04-03T05:43:24;0.20;;;0.20;;
10096;SDS011;5087;42.662;23.466;2023-04-03T05:45:52;0.20;;;0.20;;
10096;SDS011;5087;42.662;23.466;2023-04-03T05:48:28;0.17;;;0.17;;
10096;SDS011;5087;42.662;23.466;2023-04-03T05:50:55;0.30;;;0.30;;
10096;SDS011;5087;42.662;23.466;2023-04-03T05:53:26;0.10;;;0.10;;
10096;SDS011;5087;42.662;23.466;2023-04-03T05:55:59;0.10;;;0.10;;
10096;SDS011;5087;42.662;23.466;2023-04-03T05:58:32;0.20;;;0.20;;
10096;SDS011;5087;42.662;23.466;2023-04-03T06:01:02;0.10;;;0.10;;
10096;SDS011;5087;42.662;23.466;2023-04-03T06:03:34;0.10;;;0.10;;
10096;SDS011;5087;42.662;23.466;2023-04-03T06:06:02;0.20;;;0.20;;
10096;SDS011;5087;42.662;23.466;2023-04-03T06:08:31;0.13;;;0.13;;
10096;SDS011;5087;42.662;23.466;2023-04-03T06:10:59;0.20;;;0.20;;
10096;SDS011;5087;42.662;23.466;2023-04-03T06:13:27;0.10;;;0.10;;
10096;SDS011;5087;42.662;23.466;2023-04-03T06:16:00;0.10;;;0.10;;
10096;SDS011;5087;42.662;23.466;2023-04-03T06:18:34;0.10;;;0.10;;
10096;SDS011;5087;42.662;23.466;2023-04-03T06:21:05;0.10;;;0.10;;
10096;SDS011;5087;42.662;23.466;2023-04-03T06:23:34;0.10;;;0.10;;
10096;SDS011;5087;42.662;23.466;2023-04-03T06:26:11;0.23;;;0.23;;
10096;SDS011;5087;42.662;23.466;2023-04-03T06:28:43;3.93;;;3.30;;
10096;SDS011;5087;42.662;23.466;2023-04-03T06:31:13;0.00;;;0.00;;
10096;SDS011;5087;42.662;23.466;2023-04-03T06:33:42;0.20;;;0.20;;
10096;SDS011;5087;42.662;23.466;2023-04-03T06:36:10;0.03;;;0.03;;
10096;SDS011;5087;42.662;23.466;2023-04-03T06:38:38;0.00;;;0.00;;
10096;SDS011;5087;42.662;23.466;2023-04-03T06:41:09;0.10;;;0.10;;
10096;SDS011;5087;42.662;23.466;2023-04-03T06:43:37;0.20;;;0.20;;
10096;SDS011;5087;42.662;23.466;2023-04-03T06:46:18;0.10;;;0.10;;
10096;SDS011;5087;42.662;23.466;2023-04-03T06:48:50;0.20;;;0.20;;
10096;SDS011;5087;42.662;23.466;2023-04-03T06:51:18;0.20;;;0.20;;
10096;SDS011;5087;42.662;23.466;2023-04-03T06:53:50;0.40;;;0.40;;
10096;SDS011;5087;42.662;23.466;2023-04-03T06:56:18;0.60;;;0.60;;
10096;SDS011;5087;42.662;23.466;2023-04-03T06:58:46;0.80;;;0.80;;
10096;SDS011;5087;42.662;23.466;2023-04-03T07:01:18;1.47;;;1.47;;
10096;SDS011;5087;42.662;23.466;2023-04-03T07:03:48;1.53;;;1.53;;
10096;SDS011;5087;42.662;23.466;2023-04-03T07:06:16;1.80;;;1.80;;
10096;SDS011;5087;42.662;23.466;2023-04-03T07:08:47;1.80;;;1.80;;
10096;SDS011;5087;42.662;23.466;2023-04-03T07:11:18;2.30;;;2.30;;
10096;SDS011;5087;42.662;23.466;2023-04-03T07:13:51;3.00;;;3.00;;
10096;SDS011;5087;42.662;23.466;2023-04-03T07:16:20;3.50;;;3.50;;
10096;SDS011;5087;42.662;23.466;2023-04-03T07:18:48;3.70;;;3.70;;
10096;SDS011;5087;42.662;23.466;2023-04-03T07:21:15;4.10;;;4.00;;
10096;SDS011;5087;42.662;23.466;2023-04-03T07:23:43;4.30;;;4.20;;
10096;SDS011;5087;42.662;23.466;2023-04-03T07:26:14;3.00;;;3.00;;
10096;SDS011;5087;42.662;23.466;2023-04-03T07:28:42;2.60;;;2.60;;
10096;SDS011;5087;42.662;23.466;2023-04-03T07:31:24;2.50;;;2.50;;
10096;SDS011;5087;42.662;23.466;2023-04-03T07:33:52;2.70;;;2.70;;
10096;SDS011;5087;42.662;23.466;2023-04-03T07:36:20;2.30;;;2.30;;
10096;SDS011;5087;42.662;23.466;2023-04-03T07:38:49;2.10;;;2.10;;
10096;SDS011;5087;42.662;23.466;2023-04-03T07:41:16;2.00;;;2.00;;
10096;SDS011;5087;42.662;23.466;2023-04-03T07:43:46;1.97;;;1.97;;
10096;SDS011;5087;42.662;23.466;2023-04-03T07:46:19;2.20;;;2.20;;
10096;SDS011;5087;42.662;23.466;2023-04-03T07:48:50;2.30;;;2.30;;
10096;SDS011;5087;42.662;23.466;2023-04-03T07:51:17;2.67;;;2.67;;
10096;SDS011;5087;42.662;23.466;2023-04-03T07:53:45;2.60;;;2.60;;
10096;SDS011;5087;42.662;23.466;2023-04-03T07:56:15;2.67;;;2.67;;
10096;SDS011;5087;42.662;23.466;2023-04-03T07:58:43;2.80;;;2.80;;
10096;SDS011;5087;42.662;23.466;2023-04-03T08:01:11;2.70;;;2.70;;
10096;SDS011;5087;42.662;23.466;2023-04-03T08:03:42;3.73;;;3.63;;
10096;SDS011;5087;42.662;23.466;2023-04-03T08:06:50;3.10;;;3.10;;
10096;SDS011;5087;42.662;23.466;2023-04-03T08:09:19;4.53;;;4.43;;
10096;SDS011;5087;42.662;23.466;2023-04-03T08:11:46;3.73;;;3.73;;
10096;SDS011;5087;42.662;23.466;2023-04-03T08:14:13;4.20;;;4.10;;
10096;SDS011;5087;42.662;23.466;2023-04-03T08:16:44;4.63;;;4.53;;
10096;SDS011;5087;42.662;23.466;2023-04-03T08:19:11;4.80;;;4.70;;
10096;SDS011;5087;42.662;23.466;2023-04-03T08:21:43;4.50;;;4.40;;
10096;SDS011;5087;42.662;23.466;2023-04-03T08:24:14;4.80;;;4.70;;
10096;SDS011;5087;42.662;23.466;2023-04-03T08:26:44;5.20;;;5.10;;
10096;SDS011;5087;42.662;23.466;2023-04-03T08:29:15;5.10;;;5.00;;
10096;SDS011;5087;42.662;23.466;2023-04-03T08:31:43;4.70;;;4.60;;
10096;SDS011;5087;42.662;23.466;2023-04-03T08:34:10;4.73;;;4.63;;
10096;SDS011;5087;42.662;23.466;2023-04-03T08:36:38;4.80;;;4.70;;
10096;SDS011;5087;42.662;23.466;2023-04-03T08:39:06;4.70;;;4.60;;
10096;SDS011;5087;42.662;23.466;2023-04-03T08:41:35;4.80;;;4.70;;
10096;SDS011;5087;42.662;23.466;2023-04-03T08:44:12;4.33;;;4.23;;
10096;SDS011;5087;42.662;23.466;2023-04-03T08:46:52;4.60;;;4.50;;
10096;SDS011;5087;42.662;23.466;2023-04-03T08:49:32;4.70;;;4.60;;
10096;SDS011;5087;42.662;23.466;2023-04-03T08:52:09;5.10;;;5.00;;
10096;SDS011;5087;42.662;23.466;2023-04-03T08:55:06;5.20;;;5.10;;
10096;SDS011;5087;42.662;23.466;2023-04-03T08:57:57;4.70;;;4.60;;
10096;SDS011;5087;42.662;23.466;2023-04-03T09:00:29;5.50;;;5.40;;
10096;SDS011;5087;42.662;23.466;2023-04-03T09:04:09;5.30;;;5.20;;
10096;SDS011;5087;42.662;23.466;2023-04-03T09:07:21;5.30;;;5.20;;
10096;SDS011;5087;42.662;23.466;2023-04-03T09:10:30;5.30;;;5.20;;
10096;SDS011;5087;42.662;23.466;2023-04-03T09:14:07;5.10;;;5.00;;
10096;SDS011;5087;42.662;23.466;2023-04-03T09:16:53;5.30;;;5.20;;
10096;SDS011;5087;42.662;23.466;2023-04-03T09:19:38;5.57;;;5.47;;
10096;SDS011;5087;42.662;23.466;2023-04-03T09:23:18;5.43;;;5.33;;
10096;SDS011;5087;42.662;23.466;2023-04-03T09:26:05;5.80;;;5.70;;
10096;SDS011;5087;42.662;23.466;2023-04-03T09:29:06;5.80;;;5.70;;
10096;SDS011;5087;42.662;23.466;2023-04-03T09:31:44;5.23;;;5.13;;
10096;SDS011;5087;42.662;23.466;2023-04-03T09:37:57;5.50;;;5.40;;
10096;SDS011;5087;42.662;23.466;2023-04-03T09:41:06;6.00;;;5.90;;
10096;SDS011;5087;42.662;23.466;2023-04-03T09:44:53;5.70;;;5.60;;
10096;SDS011;5087;42.662;23.466;2023-04-03T09:48:06;6.00;;;5.90;;
10096;SDS011;5087;42.662;23.466;2023-04-03T09:50:58;5.60;;;5.50;;
10096;SDS011;5087;42.662;23.466;2023-04-03T09:57:32;6.10;;;6.00;;
10096;SDS011;5087;42.662;23.466;2023-04-03T10:00:57;5.60;;;5.50;;
10096;SDS011;5087;42.662;23.466;2023-04-03T10:03:45;5.70;;;5.60;;
10096;SDS011;5087;42.662;23.466;2023-04-03T10:06:57;5.90;;;5.80;;
10096;SDS011;5087;42.662;23.466;2023-04-03T10:09:54;5.50;;;5.40;;
10096;SDS011;5087;42.662;23.466;2023-04-03T10:12:41;5.43;;;5.33;;
10096;SDS011;5087;42.662;23.466;2023-04-03T10:15:16;5.10;;;5.00;;
10096;SDS011;5087;42.662;23.466;2023-04-03T10:17:49;5.40;;;5.30;;
10096;SDS011;5087;42.662;23.466;2023-04-03T10:20:48;5.27;;;5.17;;
10096;SDS011;5087;42.662;23.466;2023-04-03T10:23:21;4.93;;;4.83;;
10096;SDS011;5087;42.662;23.466;2023-04-03T10:26:16;5.30;;;5.20;;
10096;SDS011;5087;42.662;23.466;2023-04-03T10:29:27;5.30;;;5.20;;
10096;SDS011;5087;42.662;23.466;2023-04-03T10:32:40;5.27;;;5.17;;
10096;SDS011;5087;42.662;23.466;2023-04-03T10:39:33;5.70;;;5.60;;
10096;SDS011;5087;42.662;23.466;2023-04-03T10:42:22;5.83;;;5.73;;
10096;SDS011;5087;42.662;23.466;2023-04-03T10:45:07;5.30;;;5.20;;
10096;SDS011;5087;42.662;23.466;2023-04-03T10:48:05;4.70;;;4.60;;
10096;SDS011;5087;42.662;23.466;2023-04-03T10:51:22;4.63;;;4.53;;
10096;SDS011;5087;42.662;23.466;2023-04-03T10:54:00;4.90;;;4.80;;
10096;SDS011;5087;42.662;23.466;2023-04-03T10:57:00;5.00;;;4.90;;
10096;SDS011;5087;42.662;23.466;2023-04-03T10:59:45;5.37;;;5.27;;
10096;SDS011;5087;42.662;23.466;2023-04-03T11:02:24;4.97;;;4.87;;
10096;SDS011;5087;42.662;23.466;2023-04-03T11:05:15;5.10;;;5.00;;
10096;SDS011;5087;42.662;23.466;2023-04-03T11:07:59;6.17;;;6.07;;
10096;SDS011;5087;42.662;23.466;2023-04-03T11:10:58;6.40;;;6.30;;
10096;SDS011;5087;42.662;23.466;2023-04-03T11:13:35;6.90;;;6.70;;
10096;SDS011;5087;42.662;23.466;2023-04-03T11:16:24;6.17;;;6.07;;
10096;SDS011;5087;42.662;23.466;2023-04-03T11:19:14;4.20;;;4.10;;
10096;SDS011;5087;42.662;23.466;2023-04-03T11:21:56;4.17;;;4.07;;
10096;SDS011;5087;42.662;23.466;2023-04-03T11:24:41;3.10;;;3.10;;
10096;SDS011;5087;42.662;23.466;2023-04-03T11:27:21;2.50;;;2.50;;
10096;SDS011;5087;42.662;23.466;2023-04-03T11:29:52;2.40;;;2.40;;
10096;SDS011;5087;42.662;23.466;2023-04-03T11:32:35;1.40;;;1.40;;
10096;SDS011;5087;42.662;23.466;2023-04-03T11:35:15;1.10;;;1.10;;
10096;SDS011;5087;42.662;23.466;2023-04-03T11:37:45;1.20;;;1.20;;
10096;SDS011;5087;42.662;23.466;2023-04-03T11:40:22;0.90;;;0.90;;
10096;SDS011;5087;42.662;23.466;2023-04-03T11:43:17;0.60;;;0.60;;
10096;SDS011;5087;42.662;23.466;2023-04-03T11:45:53;0.50;;;0.50;;
10096;SDS011;5087;42.662;23.466;2023-04-03T11:51:41;0.50;;;0.50;;
10096;SDS011;5087;42.662;23.466;2023-04-03T11:57:22;0.20;;;0.20;;
10096;SDS011;5087;42.662;23.466;2023-04-03T12:06:41;0.40;;;0.27;;
10096;SDS011;5087;42.662;23.466;2023-04-03T12:09:04;0.00;;;0.00;;
10096;SDS011;5087;42.662;23.466;2023-04-03T12:11:53;0.00;;;0.00;;
10096;SDS011;5087;42.662;23.466;2023-04-03T12:14:22;0.00;;;0.00;;
10096;SDS011;5087;42.662;23.466;2023-04-03T12:16:52;0.00;;;0.00;;
10096;SDS011;5087;42.662;23.466;2023-04-03T12:19:36;0.00;;;0.00;;
10096;SDS011;5087;42.662;23.466;2023-04-03T12:22:12;0.00;;;0.00;;
10096;SDS011;5087;42.662;23.466;2023-04-03T12:24:42;0.03;;;0.03;;
10096;SDS011;5087;42.662;23.466;2023-04-03T12:27:15;0.00;;;0.00;;
10096;SDS011;5087;42.662;23.466;2023-04-03T12:30:00;0.00;;;0.00;;
10096;SDS011;5087;42.662;23.466;2023-04-03T12:32:35;0.00;;;0.00;;
10096;SDS011;5087;42.662;23.466;2023-04-03T12:35:17;0.00;;;0.00;;
10096;SDS011;5087;42.662;23.466;2023-04-03T12:38:00;0.00;;;0.00;;
10096;SDS011;5087;42.662;23.466;2023-04-03T12:40:57;0.20;;;0.20;;
10096;SDS011;5087;42.662;23.466;2023-04-03T12:43:37;0.00;;;0.00;;
10096;SDS011;5087;42.662;23.466;2023-04-03T12:46:22;0.00;;;0.00;;
10096;SDS011;5087;42.662;23.466;2023-04-03T12:48:51;0.00;;;0.00;;
10096;SDS011;5087;42.662;23.466;2023-04-03T12:51:31;0.00;;;0.00;;
10096;SDS011;5087;42.662;23.466;2023-04-03T12:54:09;0.10;;;0.10;;
10096;SDS011;5087;42.662;23.466;2023-04-03T12:56:43;0.00;;;0.00;;
10096;SDS011;5087;42.662;23.466;2023-04-03T12:59:27;0.00;;;0.00;;
10096;SDS011;5087;42.662;23.466;2023-04-03T13:01:55;0.10;;;0.10;;
10096;SDS011;5087;42.662;23.466;2023-04-03T13:04:39;0.00;;;0.00;;
10096;SDS011;5087;42.662;23.466;2023-04-03T13:07:19;0.00;;;0.00;;
10096;SDS011;5087;42.662;23.466;2023-04-03T13:09:55;0.30;;;0.30;;
10096;SDS011;5087;42.662;23.466;2023-04-03T13:12:23;0.00;;;0.00;;
10096;SDS011;5087;42.662;23.466;2023-04-03T13:14:54;0.00;;;0.00;;
10096;SDS011;5087;42.662;23.466;2023-04-03T13:17:24;0.00;;;0.00;;
10096;SDS011;5087;42.662;23.466;2023-04-03T13:19:53;0.00;;;0.00;;
10096;SDS011;5087;42.662;23.466;2023-04-03T13:22:27;0.20;;;0.20;;
10096;SDS011;5087;42.662;23.466;2023-04-03T13:25:04;0.00;;;0.00;;
10096;SDS011;5087;42.662;23.466;2023-04-03T13:27:38;0.00;;;0.00;;
10096;SDS011;5087;42.662;23.466;2023-04-03T13:30:20;0.00;;;0.00;;
10096;SDS011;5087;42.662;23.466;2023-04-03T13:32:58;0.40;;;0.40;;
10096;SDS011;5087;42.662;23.466;2023-04-03T13:35:32;0.00;;;0.00;;
10096;SDS011;5087;42.662;23.466;2023-04-03T13:40:51;0.00;;;0.00;;
10096;SDS011;5087;42.662;23.466;2023-04-03T13:43:23;0.93;;;0.93;;
10096;SDS011;5087;42.662;23.466;2023-04-03T13:46:00;0.00;;;0.00;;
10096;SDS011;5087;42.662;23.466;2023-04-03T13:48:35;0.00;;;0.00;;
10096;SDS011;5087;42.662;23.466;2023-04-03T13:51:05;0.00;;;0.00;;
10096;SDS011;5087;42.662;23.466;2023-04-03T13:53:48;0.00;;;0.00;;
10096;SDS011;5087;42.662;23.466;2023-04-03T13:56:19;0.00;;;0.00;;
10096;SDS011;5087;42.662;23.466;2023-04-03T13:58:59;0.00;;;0.00;;
10096;SDS011;5087;42.662;23.466;2023-04-03T14:01:40;0.00;;;0.00;;
10096;SDS011;5087;42.662;23.466;2023-04-03T14:04:10;0.00;;;0.00;;
10096;SDS011;5087;42.662;23.466;2023-04-03T14:06:41;0.00;;;0.00;;
10096;SDS011;5087;42.662;23.466;2023-04-03T14:09:10;0.50;;;0.50;;
10096;SDS011;5087;42.662;23.466;2023-04-03T14:11:45;0.00;;;0.00;;
10096;SDS011;5087;42.662;23.466;2023-04-03T14:14:15;0.00;;;0.00;;
10096;SDS011;5087;42.662;23.466;2023-04-03T14:16:47;0.60;;;0.60;;
10096;SDS011;5087;42.662;23.466;2023-04-03T14:19:20;0.00;;;0.00;;
10096;SDS011;5087;42.662;23.466;2023-04-03T14:22:07;0.00;;;0.00;;
10096;SDS011;5087;42.662;23.466;2023-04-03T14:24:52;0.00;;;0.00;;
10096;SDS011;5087;42.662;23.466;2023-04-03T14:27:24;0.00;;;0.00;;
10096;SDS011;5087;42.662;23.466;2023-04-03T14:29:54;0.53;;;0.53;;
10096;SDS011;5087;42.662;23.466;2023-04-03T14:32:25;1.13;;;1.10;;
10096;SDS011;5087;42.662;23.466;2023-04-03T14:34:54;0.00;;;0.00;;
10096;SDS011;5087;42.662;23.466;2023-04-03T14:37:22;0.00;;;0.00;;
10096;SDS011;5087;42.662;23.466;2023-04-03T14:39:53;0.00;;;0.00;;
10096;SDS011;5087;42.662;23.466;2023-04-03T14:42:27;1.40;;;1.33;;
10096;SDS011;5087;42.662;23.466;2023-04-03T14:44:57;2.53;;;2.43;;
10096;SDS011;5087;42.662;23.466;2023-04-03T14:47:25;0.40;;;0.40;;
10096;SDS011;5087;42.662;23.466;2023-04-03T14:49:56;0.00;;;0.00;;
10096;SDS011;5087;42.662;23.466;2023-04-03T14:52:24;0.00;;;0.00;;
10096;SDS011;5087;42.662;23.466;2023-04-03T14:54:54;0.00;;;0.00;;
10096;SDS011;5087;42.662;23.466;2023-04-03T14:57:23;0.57;;;0.57;;
10096;SDS011;5087;42.662;23.466;2023-04-03T14:59:51;0.00;;;0.00;;
10096;SDS011;5087;42.662;23.466;2023-04-03T15:02:27;0.00;;;0.00;;
10096;SDS011;5087;42.662;23.466;2023-04-03T15:04:56;0.00;;;0.00;;
10096;SDS011;5087;42.662;23.466;2023-04-03T15:07:25;0.40;;;0.40;;
10096;SDS011;5087;42.662;23.466;2023-04-03T15:09:56;0.00;;;0.00;;
10096;SDS011;5087;42.662;23.466;2023-04-03T15:12:24;0.00;;;0.00;;
10096;SDS011;5087;42.662;23.466;2023-04-03T15:14:57;0.30;;;0.30;;
10096;SDS011;5087;42.662;23.466;2023-04-03T15:17:32;0.00;;;0.00;;
10096;SDS011;5087;42.662;23.466;2023-04-03T15:20:03;0.00;;;0.00;;
10096;SDS011;5087;42.662;23.466;2023-04-03T15:22:47;1.50;;;1.50;;
10096;SDS011;5087;42.662;23.466;2023-04-03T15:25:15;0.00;;;0.00;;
10096;SDS011;5087;42.662;23.466;2023-04-03T15:27:43;0.00;;;0.00;;
10096;SDS011;5087;42.662;23.466;2023-04-03T15:30:13;0.70;;;0.70;;
10096;SDS011;5087;42.662;23.466;2023-04-03T15:32:42;0.00;;;0.00;;
10096;SDS011;5087;42.662;23.466;2023-04-03T15:35:09;0.13;;;0.13;;
10096;SDS011;5087;42.662;23.466;2023-04-03T15:37:37;0.00;;;0.00;;
10096;SDS011;5087;42.662;23.466;2023-04-03T15:40:05;0.67;;;0.33;;
10096;SDS011;5087;42.662;23.466;2023-04-03T15:42:35;0.00;;;0.00;;
10096;SDS011;5087;42.662;23.466;2023-04-03T15:45:02;0.00;;;0.00;;
10096;SDS011;5087;42.662;23.466;2023-04-03T15:47:30;0.00;;;0.00;;
10096;SDS011;5087;42.662;23.466;2023-04-03T15:50:02;0.87;;;0.87;;
10096;SDS011;5087;42.662;23.466;2023-04-03T15:52:32;0.00;;;0.00;;
10096;SDS011;5087;42.662;23.466;2023-04-03T15:55:03;0.00;;;0.00;;
10096;SDS011;5087;42.662;23.466;2023-04-03T15:57:31;0.00;;;0.00;;
10096;SDS011;5087;42.662;23.466;2023-04-03T16:00:00;0.30;;;0.30;;
10096;SDS011;5087;42.662;23.466;2023-04-03T16:02:32;0.00;;;0.00;;